createdAt,value
2023-01-17T00:02:03.406Z,96099.03
2023-01-17T00:04:48.419Z,96121.78
2023-01-17T00:07:35.735Z,96118.63
2023-01-17T00:10:07.390Z,95978.22
2023-01-17T00:12:34.790Z,96109.03
2023-01-17T00:15:01.468Z,96083.53
2023-01-17T00:17:30.016Z,96102.88
2023-01-17T00:20:17.716Z,96113.59
2023-01-17T00:23:03.469Z,95723.56
2023-01-17T00:25:52.909Z,96110.03
2023-01-17T00:28:19.902Z,96106.78
2023-01-17T00:30:46.925Z,95952.53
2023-01-17T00:33:13.701Z,96109.69
2023-01-17T00:35:40.656Z,96100.81
2023-01-17T00:38:18.948Z,96086.44
2023-01-17T00:40:46.844Z,95981.91
2023-01-17T00:43:33.936Z,96093.94
2023-01-17T00:46:19.685Z,96022.91
2023-01-17T00:49:05.002Z,96079.50
2023-01-17T00:51:51.763Z,96087.78
2023-01-17T00:54:37.749Z,96075.72
2023-01-17T00:57:23.561Z,96070.03
2023-01-17T01:00:08.879Z,96025.16
2023-01-17T01:02:55.102Z,96074.34
2023-01-17T01:05:40.941Z,96046.09
2023-01-17T01:08:41.745Z,96067.47
2023-01-17T01:11:30.510Z,96067.72
2023-01-17T01:14:15.813Z,96067.16
2023-01-17T01:17:00.729Z,96045.53
2023-01-17T01:19:46.158Z,96051.78
2023-01-17T01:22:31.638Z,96048.84
2023-01-17T01:25:16.927Z,95984.97
2023-01-17T01:28:02.624Z,95969.94
2023-01-17T01:30:48.132Z,96037.69
2023-01-17T01:33:21.510Z,95973.00
2023-01-17T01:35:54.097Z,96034.72
2023-01-17T01:38:23.354Z,96048.84
2023-01-17T01:40:55.613Z,95933.75
2023-01-17T01:43:42.720Z,96047.72
2023-01-17T01:46:13.845Z,96049.66
2023-01-17T01:48:46.604Z,96041.47
2023-01-17T01:51:19.557Z,96026.59
2023-01-17T01:53:49.255Z,95957.00
2023-01-17T01:56:16.425Z,95975.84
2023-01-17T01:58:46.851Z,95975.34
2023-01-17T02:01:14.804Z,96044.59
2023-01-17T02:03:42.431Z,96041.41
2023-01-17T02:06:24.814Z,96041.19
2023-01-17T02:08:52.027Z,96039.03
2023-01-17T02:11:18.837Z,96024.13
2023-01-17T02:13:45.468Z,96030.63
2023-01-17T02:16:20.739Z,96038.03
2023-01-17T02:19:10.805Z,96055.56
2023-01-17T02:21:37.286Z,96047.34
2023-01-17T02:24:43.298Z,96053.72
2023-01-17T02:27:49.069Z,96049.84
2023-01-17T02:30:27.193Z,96071.34
2023-01-17T02:33:03.582Z,96065.31
2023-01-17T02:35:45.888Z,95977.22
2023-01-17T02:38:21.568Z,96054.16
2023-01-17T02:40:53.308Z,96053.00
2023-01-17T02:43:22.461Z,95982.59
2023-01-17T02:45:49.062Z,95991.81
2023-01-17T02:48:20.194Z,96039.34
2023-01-17T02:51:08.971Z,96062.53
2023-01-17T02:53:38.469Z,96056.81
2023-01-17T02:56:10.689Z,96060.66
2023-01-17T02:59:06.424Z,96057.69
2023-01-17T03:01:45.489Z,96031.38
2023-01-17T03:04:34.947Z,96011.72
2023-01-17T03:07:07.759Z,95979.34
2023-01-17T03:09:34.668Z,95970.75
2023-01-17T03:12:01.356Z,95992.81
2023-01-17T03:14:30.982Z,95947.28
2023-01-17T03:16:57.780Z,95980.47
2023-01-17T03:19:24.466Z,95968.66
2023-01-17T03:21:51.052Z,95961.78
2023-01-17T03:24:17.611Z,95932.91
2023-01-17T03:26:45.069Z,95974.22
2023-01-17T03:29:11.770Z,95976.72
2023-01-17T03:31:38.370Z,95989.72
2023-01-17T03:34:04.958Z,95975.53
2023-01-17T03:36:31.760Z,95981.78
2023-01-17T03:38:58.387Z,95974.50
2023-01-17T03:41:25.175Z,95956.63
2023-01-17T03:43:51.828Z,95942.41
2023-01-17T03:46:24.256Z,95955.31
2023-01-17T03:48:51.782Z,95960.41
2023-01-17T03:51:18.773Z,95958.00
2023-01-17T03:53:47.043Z,95884.28
2023-01-17T03:56:14.164Z,95942.56
2023-01-17T03:58:40.737Z,95892.19
2023-01-17T04:01:07.545Z,95953.19
2023-01-17T04:03:34.357Z,95884.47
2023-01-17T04:06:01.333Z,95803.88
2023-01-17T04:08:27.909Z,95879.88
2023-01-17T04:10:54.547Z,95893.50
2023-01-17T04:13:21.087Z,95903.25
2023-01-17T04:15:50.590Z,95695.03
2023-01-17T04:18:19.361Z,95900.06
2023-01-17T04:20:46.126Z,95908.88
2023-01-17T04:23:12.820Z,95828.69
2023-01-17T04:25:39.446Z,95874.31
2023-01-17T04:28:06.290Z,95912.25
2023-01-17T04:30:33.412Z,95877.53
2023-01-17T04:33:00.044Z,95894.06
2023-01-17T04:35:26.843Z,95920.41
2023-01-17T04:37:53.417Z,95850.00
2023-01-17T04:40:20.428Z,95937.47
2023-01-17T04:42:47.934Z,95898.53
2023-01-17T04:45:15.116Z,95916.88
2023-01-17T04:47:41.812Z,95874.16
2023-01-17T04:50:09.572Z,95895.25
2023-01-17T04:52:36.205Z,95905.44
2023-01-17T04:55:02.833Z,95904.97
2023-01-17T04:57:29.514Z,95911.50
2023-01-17T04:59:56.236Z,95845.53
2023-01-17T05:02:22.915Z,95904.81
2023-01-17T05:04:49.592Z,95919.81
2023-01-17T05:07:16.192Z,95907.56
2023-01-17T05:09:43.882Z,95930.41
2023-01-17T05:12:10.575Z,95914.16
2023-01-17T05:14:37.194Z,95850.69
2023-01-17T05:17:03.749Z,95915.81
2023-01-17T05:19:30.412Z,95925.88
2023-01-17T05:22:03.847Z,95838.44
2023-01-17T05:24:31.653Z,95929.13
2023-01-17T05:27:03.087Z,95913.88
2023-01-17T05:29:30.556Z,95934.72
2023-01-17T05:31:57.451Z,95874.28
2023-01-17T05:34:24.383Z,95913.63
2023-01-17T05:36:51.165Z,95948.59
2023-01-17T05:39:17.777Z,95960.88
2023-01-17T05:41:44.564Z,95917.56
2023-01-17T05:44:11.449Z,95917.31
2023-01-17T05:46:38.373Z,95971.63
2023-01-17T05:49:05.426Z,95951.25
2023-01-17T05:51:32.125Z,95952.53
2023-01-17T05:53:58.755Z,95911.09
2023-01-17T05:56:25.389Z,95984.81
2023-01-17T05:58:51.964Z,95912.97
2023-01-17T06:01:19.524Z,95913.50
2023-01-17T06:03:46.344Z,95979.09
2023-01-17T06:06:13.333Z,95976.97
2023-01-17T06:08:39.905Z,95986.50
2023-01-17T06:11:06.498Z,95984.56
2023-01-17T06:13:33.106Z,95968.13
2023-01-17T06:16:03.010Z,95901.41
2023-01-17T06:18:30.747Z,95893.06
2023-01-17T06:20:57.785Z,95971.13
2023-01-17T06:23:24.609Z,95955.06
2023-01-17T06:25:51.689Z,95957.63
2023-01-17T06:28:21.256Z,95967.44
2023-01-17T06:30:48.335Z,95970.78
2023-01-17T06:33:15.370Z,95971.78
2023-01-17T06:35:52.795Z,95892.59
2023-01-17T06:38:20.154Z,95916.00
2023-01-17T06:40:47.006Z,95953.88
2023-01-17T06:43:13.668Z,95868.31
2023-01-17T06:45:40.283Z,95976.03
2023-01-17T06:48:07.228Z,95984.03
2023-01-17T06:50:34.184Z,95979.72
2023-01-17T06:53:06.230Z,95996.91
2023-01-17T06:55:34.651Z,95897.13
2023-01-17T06:58:03.068Z,96006.50
2023-01-17T07:00:31.116Z,96002.66
2023-01-17T07:02:58.104Z,95988.19
2023-01-17T07:05:24.984Z,95959.22
2023-01-17T07:07:51.615Z,95913.25
2023-01-17T07:10:18.324Z,95980.41
2023-01-17T07:12:45.124Z,95986.03
2023-01-17T07:15:12.017Z,95980.09
2023-01-17T07:17:39.182Z,95968.81
2023-01-17T07:20:06.978Z,95962.34
2023-01-17T07:22:33.933Z,95963.63
2023-01-17T07:25:00.560Z,95963.53
2023-01-17T07:27:30.487Z,95952.72
2023-01-17T07:29:59.188Z,95900.91
2023-01-17T07:32:28.830Z,95877.66
2023-01-17T07:34:59.081Z,95983.75
2023-01-17T07:37:26.485Z,95962.56
2023-01-17T07:39:53.843Z,95965.69
2023-01-17T07:42:23.739Z,95977.66
2023-01-17T07:44:50.784Z,95956.38
2023-01-17T07:47:17.411Z,95932.16
2023-01-17T07:49:44.038Z,95948.19
2023-01-17T07:52:10.712Z,95957.91
2023-01-17T07:54:37.425Z,95940.31
2023-01-17T07:57:04.119Z,95968.13
2023-01-17T07:59:30.744Z,95943.69
2023-01-17T08:01:57.511Z,95944.81
2023-01-17T08:04:27.323Z,95920.03
2023-01-17T08:06:55.067Z,95957.16
2023-01-17T08:09:21.942Z,95944.06
2023-01-17T08:11:48.712Z,95944.41
2023-01-17T08:14:15.273Z,95945.00
2023-01-17T08:16:42.025Z,95964.63
2023-01-17T08:19:08.827Z,95893.13
2023-01-17T08:21:35.390Z,95925.91
2023-01-17T08:24:02.002Z,95950.53
2023-01-17T08:26:28.686Z,95952.09
2023-01-17T08:29:02.768Z,95968.69
2023-01-17T08:31:35.414Z,95965.16
2023-01-17T08:34:02.195Z,95982.53
2023-01-17T08:36:31.289Z,95974.22
2023-01-17T08:38:58.731Z,95983.69
2023-01-17T08:41:27.987Z,95951.19
2023-01-17T08:43:54.682Z,95968.56
2023-01-17T08:46:21.576Z,95977.75
2023-01-17T08:48:48.139Z,95974.59
2023-01-17T08:51:14.789Z,95968.31
2023-01-17T08:53:41.981Z,95875.91
2023-01-17T08:56:09.574Z,95960.72
2023-01-17T08:58:36.230Z,95869.00
2023-01-17T09:01:05.029Z,95964.00
2023-01-17T09:03:33.120Z,95914.94
2023-01-17T09:06:07.795Z,95971.16
2023-01-17T09:08:34.850Z,95964.03
2023-01-17T09:11:09.494Z,95964.78
2023-01-17T09:13:36.885Z,95964.72
2023-01-17T09:16:04.490Z,95945.88
2023-01-17T09:18:32.417Z,95985.00
2023-01-17T09:20:59.574Z,95963.19
2023-01-17T09:23:28.035Z,95898.78
2023-01-17T09:25:59.922Z,95934.00
2023-01-17T09:28:27.912Z,95990.94
2023-01-17T09:30:54.950Z,95954.53
2023-01-17T09:33:23.198Z,95946.19
2023-01-17T09:35:49.885Z,95986.16
2023-01-17T09:38:17.136Z,95903.91
2023-01-17T09:40:47.504Z,95944.25
2023-01-17T09:43:49.614Z,95971.88
2023-01-17T09:46:30.763Z,95914.22
2023-01-17T09:49:08.369Z,95978.25
2023-01-17T09:51:36.482Z,95985.38
2023-01-17T09:54:03.298Z,95986.56
2023-01-17T09:56:41.353Z,95975.81
2023-01-17T09:59:35.494Z,95970.34
2023-01-17T10:02:40.769Z,95595.75
2023-01-17T10:05:26.081Z,95975.78
2023-01-17T10:08:11.281Z,95964.81
2023-01-17T10:10:51.087Z,95950.59
2023-01-17T10:13:46.542Z,95952.91
2023-01-17T10:16:28.233Z,95943.31
2023-01-17T10:19:18.504Z,95947.25
2023-01-17T10:21:59.222Z,95905.31
2023-01-17T10:25:13.132Z,95939.53
2023-01-17T10:27:58.360Z,95948.63
2023-01-17T10:30:38.362Z,95946.28
2023-01-17T10:33:29.132Z,95933.47
2023-01-17T10:36:15.436Z,95889.22
2023-01-17T10:38:47.914Z,95934.53
2023-01-17T10:41:29.426Z,95927.59
2023-01-17T10:44:39.521Z,95926.91
2023-01-17T10:47:11.756Z,95933.16
2023-01-17T10:49:59.505Z,95930.31
2023-01-17T10:52:43.334Z,95922.56
2023-01-17T10:55:12.977Z,95929.22
2023-01-17T10:57:42.848Z,95916.06
2023-01-17T11:00:44.144Z,95904.53
2023-01-17T11:03:16.768Z,95921.81
2023-01-17T11:05:44.325Z,95919.66
2023-01-17T11:08:14.304Z,95916.44
2023-01-17T11:10:48.868Z,95886.91
2023-01-17T11:13:18.494Z,95921.13
2023-01-17T11:15:53.324Z,95914.25
2023-01-17T11:18:22.096Z,95917.84
2023-01-17T11:20:49.826Z,95920.41
2023-01-17T11:23:33.287Z,95910.00
2023-01-17T11:26:07.601Z,95910.97
2023-01-17T11:28:37.195Z,95916.81
2023-01-17T11:31:09.201Z,95914.56
2023-01-17T11:33:45.276Z,95923.91
2023-01-17T11:36:30.094Z,95912.09
2023-01-17T11:39:06.045Z,95917.00
2023-01-17T11:41:42.219Z,95919.94
2023-01-17T11:44:30.442Z,95915.69
2023-01-17T11:47:12.028Z,95922.84
2023-01-17T11:49:40.683Z,95921.34
2023-01-17T11:52:16.700Z,95919.00
2023-01-17T11:54:46.911Z,95904.88
2023-01-17T11:57:43.051Z,95915.16
2023-01-17T12:00:27.494Z,95923.91
2023-01-17T12:03:18.923Z,95919.94
2023-01-17T12:06:08.107Z,95918.25
2023-01-17T12:09:08.442Z,95916.63
2023-01-17T12:12:07.025Z,95907.53
2023-01-17T12:15:07.666Z,95893.72
2023-01-17T12:17:48.556Z,95892.06
2023-01-17T12:20:34.311Z,95891.25
2023-01-17T12:23:25.222Z,95890.38
2023-01-17T12:26:09.626Z,95879.22
2023-01-17T12:29:02.487Z,95886.22
2023-01-17T12:31:33.511Z,95889.41
2023-01-17T12:34:47.260Z,95886.47
2023-01-17T12:37:22.964Z,95891.03
2023-01-17T12:39:58.179Z,95807.75
2023-01-17T12:42:31.023Z,95889.75
2023-01-17T12:45:06.840Z,95898.19
2023-01-17T12:47:37.880Z,95905.38
2023-01-17T12:50:26.338Z,95882.47
2023-01-17T12:53:10.036Z,95882.91
2023-01-17T12:55:54.577Z,95813.06
2023-01-17T12:58:24.813Z,95878.88
2023-01-17T13:01:01.741Z,95848.47
2023-01-17T13:04:05.884Z,95870.59
2023-01-17T13:06:58.587Z,95856.03
2023-01-17T13:09:28.360Z,95776.31
2023-01-17T13:12:05.639Z,95905.84
2023-01-17T13:14:32.907Z,95876.84
2023-01-17T13:17:02.832Z,95856.59
2023-01-17T13:19:42.057Z,95876.91
2023-01-17T13:22:17.426Z,95877.03
2023-01-17T13:25:42.002Z,95546.00
2023-01-17T13:28:14.531Z,95879.78
2023-01-17T13:31:02.834Z,95866.19
2023-01-17T13:33:35.485Z,95874.69
2023-01-17T13:36:30.328Z,95867.53
2023-01-17T13:39:05.986Z,95864.63
2023-01-17T13:41:44.741Z,95857.88
2023-01-17T13:44:22.261Z,95859.41
2023-01-17T13:47:01.021Z,95864.88
2023-01-17T13:49:31.714Z,95860.50
2023-01-17T13:52:19.389Z,95865.69
2023-01-17T13:54:52.008Z,95876.19
2023-01-17T13:57:32.897Z,95852.97
2023-01-17T14:00:35.953Z,95856.31
2023-01-17T14:03:02.914Z,95842.88
2023-01-17T14:05:38.371Z,95847.03
2023-01-17T14:08:27.345Z,95901.03
2023-01-17T14:11:04.334Z,95856.63
2023-01-17T14:13:39.466Z,95849.09
2023-01-17T14:16:26.892Z,95757.19
2023-01-17T14:18:55.168Z,95857.50
2023-01-17T14:21:25.573Z,95848.91
2023-01-17T14:24:06.389Z,95840.66
2023-01-17T14:27:14.955Z,95833.94
2023-01-17T14:29:58.930Z,95829.28
2023-01-17T14:32:35.426Z,95755.16
2023-01-17T14:35:02.849Z,95794.63
2023-01-17T14:37:45.781Z,95797.00
2023-01-17T14:40:21.369Z,95851.53
2023-01-17T14:42:59.513Z,95851.56
2023-01-17T14:45:29.158Z,95846.84
2023-01-17T14:48:02.034Z,95823.19
2023-01-17T14:50:36.403Z,95859.13
2023-01-17T14:53:32.248Z,95848.06
2023-01-17T14:56:13.191Z,95857.63
2023-01-17T14:58:39.906Z,95870.69
2023-01-17T15:01:13.858Z,95842.25
2023-01-17T15:03:50.454Z,95854.91
2023-01-17T15:06:24.978Z,95850.19
2023-01-17T15:08:54.202Z,95846.63
2023-01-17T15:11:26.144Z,95852.97
2023-01-17T15:13:57.500Z,95794.47
2023-01-17T15:16:30.904Z,95845.03
2023-01-17T15:18:57.634Z,95846.19
2023-01-17T15:21:30.075Z,95826.44
2023-01-17T15:24:00.021Z,95846.97
2023-01-17T15:26:30.027Z,95804.25
2023-01-17T15:29:04.991Z,95862.38
2023-01-17T15:31:40.466Z,95860.38
2023-01-17T15:34:14.205Z,95867.41
2023-01-17T15:36:40.922Z,95869.72
2023-01-17T15:39:23.926Z,95867.00
2023-01-17T15:41:55.403Z,95833.31
2023-01-17T15:44:46.798Z,95815.84
2023-01-17T15:47:30.454Z,95796.88
2023-01-17T15:49:57.684Z,95876.03
2023-01-17T15:52:24.256Z,95880.00
2023-01-17T15:54:55.474Z,95885.09
2023-01-17T15:57:38.314Z,95876.84
2023-01-17T16:00:18.379Z,95877.25
2023-01-17T16:02:46.957Z,95880.78
2023-01-17T16:05:27.722Z,95868.94
2023-01-17T16:08:25.523Z,95859.47
2023-01-17T16:10:59.206Z,95863.38
2023-01-17T16:13:25.767Z,95855.50
2023-01-17T16:15:52.571Z,95852.38
2023-01-17T16:18:24.045Z,95808.09
2023-01-17T16:20:59.802Z,95859.47
2023-01-17T16:23:27.889Z,95813.56
2023-01-17T16:25:54.464Z,95850.72
2023-01-17T16:28:21.132Z,95861.84
2023-01-17T16:30:48.975Z,95804.03
2023-01-17T16:33:16.048Z,95880.78
2023-01-17T16:35:43.060Z,95885.94
2023-01-17T16:38:15.710Z,95832.53
2023-01-17T16:40:44.490Z,95826.22
2023-01-17T16:43:12.298Z,95851.50
2023-01-17T16:45:41.386Z,95882.38
2023-01-17T16:48:08.809Z,95869.72
2023-01-17T16:50:35.434Z,95812.41
2023-01-17T16:53:02.054Z,95872.06
2023-01-17T16:55:28.612Z,95865.75
2023-01-17T16:57:58.172Z,95773.97
2023-01-17T17:00:26.936Z,95887.03
2023-01-17T17:02:54.116Z,95865.28
2023-01-17T17:05:20.901Z,95827.72
2023-01-17T17:07:50.767Z,95868.03
2023-01-17T17:10:20.441Z,95850.56
2023-01-17T17:12:47.073Z,95776.66
2023-01-17T17:15:14.347Z,95841.94
2023-01-17T17:17:43.125Z,95857.81
2023-01-17T17:20:13.356Z,95850.72
2023-01-17T17:22:43.015Z,95859.78
2023-01-17T17:25:11.722Z,95851.44
2023-01-17T17:27:38.709Z,95792.06
2023-01-17T17:30:06.368Z,95869.22
2023-01-17T17:32:33.050Z,95845.19
2023-01-17T17:34:59.957Z,95858.16
2023-01-17T17:37:29.121Z,95809.56
2023-01-17T17:39:56.495Z,95836.47
2023-01-17T17:42:23.355Z,95844.38
2023-01-17T17:44:49.953Z,95834.94
2023-01-17T17:47:16.673Z,95822.25
2023-01-17T17:49:43.627Z,95815.09
2023-01-17T17:52:10.324Z,95804.09
2023-01-17T17:54:37.195Z,95818.31
2023-01-17T17:57:03.977Z,95806.44
2023-01-17T17:59:31.281Z,95768.13
2023-01-17T18:02:00.095Z,95794.22
2023-01-17T18:04:27.141Z,95796.16
2023-01-17T18:06:57.875Z,95725.38
2023-01-17T18:09:24.836Z,95716.34
2023-01-17T18:11:51.668Z,95789.88
2023-01-17T18:14:21.266Z,95815.09
2023-01-17T18:16:48.485Z,95802.44
2023-01-17T18:19:20.641Z,95806.38
2023-01-17T18:21:48.890Z,95806.31
2023-01-17T18:24:17.467Z,95812.97
2023-01-17T18:26:46.976Z,95376.41
2023-01-17T18:29:16.027Z,95797.50
2023-01-17T18:31:44.508Z,95806.56
2023-01-17T18:34:14.562Z,95785.59
2023-01-17T18:36:42.047Z,95754.59
2023-01-17T18:39:17.657Z,95805.78
2023-01-17T18:41:44.462Z,95774.34
2023-01-17T18:44:12.075Z,95790.22
2023-01-17T18:46:40.436Z,95791.38
2023-01-17T18:49:07.272Z,95796.88
2023-01-17T18:51:34.987Z,95790.94
2023-01-17T18:54:05.851Z,95769.69
2023-01-17T18:56:36.715Z,95764.94
2023-01-17T18:59:05.985Z,95764.94
2023-01-17T19:01:35.893Z,95760.19
2023-01-17T19:04:05.013Z,95759.34
2023-01-17T19:06:34.924Z,95759.34
2023-01-17T19:09:02.815Z,95753.84
2023-01-17T19:11:29.649Z,95733.25
2023-01-17T19:13:57.008Z,95745.19
2023-01-17T19:16:29.785Z,95719.97
2023-01-17T19:19:01.662Z,95761.03
2023-01-17T19:21:29.865Z,95754.72
2023-01-17T19:23:57.459Z,95757.88
2023-01-17T19:26:26.624Z,95734.94
2023-01-17T19:28:56.050Z,95741.34
2023-01-17T19:31:25.492Z,95748.41
2023-01-17T19:34:00.290Z,95567.34
2023-01-17T19:36:32.009Z,95746.03
2023-01-17T19:39:04.804Z,95732.66
2023-01-17T19:41:37.180Z,95759.50
2023-01-17T19:44:08.431Z,95760.66
2023-01-17T19:46:36.711Z,95726.28
2023-01-17T19:49:06.377Z,95760.28
2023-01-17T19:51:33.330Z,95752.72
2023-01-17T19:54:01.957Z,95771.31
2023-01-17T19:56:29.632Z,95774.44
2023-01-17T19:59:01.226Z,95712.84
2023-01-17T20:01:31.159Z,95720.25
2023-01-17T20:03:59.181Z,95754.69
2023-01-17T20:06:29.198Z,95755.53
2023-01-17T20:08:56.606Z,95747.28
2023-01-17T20:11:25.147Z,95754.69
2023-01-17T20:13:54.371Z,95752.72
2023-01-17T20:16:22.169Z,95755.16
2023-01-17T20:18:49.429Z,95763.38
2023-01-17T20:21:21.207Z,95750.66
2023-01-17T20:23:50.188Z,95762.63
2023-01-17T20:26:21.994Z,95754.75
2023-01-17T20:28:51.964Z,95733.38
2023-01-17T20:31:24.151Z,95743.72
2023-01-17T20:33:53.276Z,95740.59
2023-01-17T20:36:23.159Z,95729.09
2023-01-17T20:38:50.567Z,95709.81
2023-01-17T20:41:24.550Z,95754.06
2023-01-17T20:43:54.433Z,95722.03
2023-01-17T20:46:22.579Z,95745.38
2023-01-17T20:48:51.591Z,95751.69
2023-01-17T20:51:19.569Z,95750.91
2023-01-17T20:53:50.504Z,95696.75
2023-01-17T20:56:18.132Z,95739.94
2023-01-17T20:58:45.126Z,95729.72
2023-01-17T21:01:13.696Z,95505.38
2023-01-17T21:03:40.467Z,95729.72
2023-01-17T21:06:10.201Z,95732.97
2023-01-17T21:08:38.768Z,95732.59
2023-01-17T21:11:06.327Z,95729.00
2023-01-17T21:13:33.339Z,95723.50
2023-01-17T21:16:00.508Z,95728.16
2023-01-17T21:18:31.866Z,95618.72
2023-01-17T21:21:12.527Z,95720.66
2023-01-17T21:23:41.270Z,95729.78
2023-01-17T21:26:10.621Z,95695.34
2023-01-17T21:28:39.068Z,95731.41
2023-01-17T21:31:25.851Z,95738.44
2023-01-17T21:34:01.260Z,95625.47
2023-01-17T21:36:32.578Z,95737.69
2023-01-17T21:39:04.278Z,95740.06
2023-01-17T21:41:33.837Z,95742.44
2023-01-17T21:44:02.967Z,95746.28
2023-01-17T21:46:30.541Z,95713.16
2023-01-17T21:48:57.724Z,95747.16
2023-01-17T21:51:45.324Z,95723.53
2023-01-17T21:54:11.982Z,95722.34
2023-01-17T21:56:57.087Z,95719.56
2023-01-17T21:59:23.696Z,95717.97
2023-01-17T22:01:50.297Z,95710.13
2023-01-17T22:04:16.894Z,95703.44
2023-01-17T22:06:43.489Z,95710.53
2023-01-17T22:09:10.101Z,95713.22
2023-01-17T22:11:37.105Z,95701.44
2023-01-17T22:14:04.548Z,95695.97
2023-01-17T22:16:31.128Z,95700.34
2023-01-17T22:18:58.583Z,95701.16
2023-01-17T22:21:28.222Z,95698.00
2023-01-17T22:23:59.447Z,95688.53
2023-01-17T22:26:28.832Z,95708.66
2023-01-17T22:28:55.695Z,95706.28
2023-01-17T22:31:27.488Z,95690.94
2023-01-17T22:33:59.512Z,95689.69
2023-01-17T22:36:26.786Z,95694.00
2023-01-17T22:38:53.463Z,95687.72
2023-01-17T22:41:23.279Z,95696.81
2023-01-17T22:43:52.120Z,95695.25
2023-01-17T22:46:25.286Z,95622.53
2023-01-17T22:48:52.809Z,95673.50
2023-01-17T22:51:21.047Z,95678.66
2023-01-17T22:53:53.205Z,95639.09
2023-01-17T22:56:22.134Z,95659.59
2023-01-17T22:58:49.655Z,95639.47
2023-01-17T23:01:19.309Z,95647.06
2023-01-17T23:03:47.095Z,95653.38
2023-01-17T23:06:22.522Z,95650.25
2023-01-17T23:08:51.546Z,95633.22
2023-01-17T23:11:40.540Z,95671.56
2023-01-17T23:14:19.351Z,95670.38
2023-01-17T23:17:18.458Z,95667.59
2023-01-17T23:19:52.844Z,95678.22
2023-01-17T23:22:26.796Z,95676.59
2023-01-17T23:24:54.544Z,95677.00
2023-01-17T23:27:45.971Z,95662.81
2023-01-17T23:30:19.030Z,95670.72
2023-01-17T23:32:48.116Z,95665.19
2023-01-17T23:35:15.921Z,95652.19
2023-01-17T23:38:01.511Z,95652.16
2023-01-17T23:40:28.310Z,95568.88
2023-01-17T23:43:13.551Z,95639.97
2023-01-17T23:45:40.257Z,95640.69
2023-01-17T23:48:09.838Z,95620.16
2023-01-17T23:50:41.764Z,95592.81
2023-01-17T23:53:09.708Z,95625.63
2023-01-17T23:55:41.187Z,95645.78
2023-01-17T23:58:10.768Z,95632.28
